sensor_id;sensor_type;location;lat;lon;timestamp;pressure;altitude;pressure_sealevel;temperature;humidity
23170;BME280;11753;43.144;24.714;2023-02-20T00:00:48;99773.19;;;12.44;57.30
23170;BME280;11753;43.144;24.714;2023-02-20T00:01:52;99772.34;;;12.43;57.27
23170;BME280;11753;43.144;24.714;2023-02-20T00:02:53;99782.56;;;12.46;57.22
23170;BME280;11753;43.144;24.714;2023-02-20T00:03:55;99778.47;;;12.44;57.25
23170;BME280;11753;43.144;24.714;2023-02-20T00:04:56;99770.38;;;12.45;57.46
23170;BME280;11753;43.144;24.714;2023-02-20T00:05:57;99773.66;;;12.47;57.29
23170;BME280;11753;43.144;24.714;2023-02-20T00:06:58;99777.63;;;12.43;57.58
23170;BME280;11753;43.144;24.714;2023-02-20T00:07:59;99778.59;;;12.42;57.65
23170;BME280;11753;43.144;24.714;2023-02-20T00:09:00;99777.13;;;12.39;57.81
23170;BME280;11753;43.144;24.714;2023-02-20T00:10:01;99769.66;;;12.35;58.04
23170;BME280;11753;43.144;24.714;2023-02-20T00:11:02;99762.63;;;12.44;57.81
23170;BME280;11753;43.144;24.714;2023-02-20T00:12:04;99807.00;;;12.48;57.53
23170;BME280;11753;43.144;24.714;2023-02-20T00:13:04;99782.56;;;12.46;57.59
23170;BME280;11753;43.144;24.714;2023-02-20T00:14:05;99777.31;;;12.46;57.65
23170;BME280;11753;43.144;24.714;2023-02-20T00:15:07;99781.94;;;12.44;57.60
23170;BME280;11753;43.144;24.714;2023-02-20T00:16:08;99787.50;;;12.41;57.80
23170;BME280;11753;43.144;24.714;2023-02-20T00:17:09;99787.19;;;12.44;57.80
23170;BME280;11753;43.144;24.714;2023-02-20T00:18:10;99789.19;;;12.50;57.54
23170;BME280;11753;43.144;24.714;2023-02-20T00:19:11;99783.59;;;12.53;57.50
23170;BME280;11753;43.144;24.714;2023-02-20T00:20:17;99780.28;;;12.51;57.75
23170;BME280;11753;43.144;24.714;2023-02-20T00:21:18;99784.56;;;12.44;57.89
23170;BME280;11753;43.144;24.714;2023-02-20T00:22:25;99785.19;;;12.30;58.24
23170;BME280;11753;43.144;24.714;2023-02-20T00:23:26;99782.53;;;12.30;58.28
23170;BME280;11753;43.144;24.714;2023-02-20T00:24:27;99772.31;;;12.35;58.15
23170;BME280;11753;43.144;24.714;2023-02-20T00:25:28;99778.28;;;12.37;58.30
23170;BME280;11753;43.144;24.714;2023-02-20T00:26:29;99768.69;;;12.36;58.39
23170;BME280;11753;43.144;24.714;2023-02-20T00:27:30;99765.53;;;12.32;58.24
23170;BME280;11753;43.144;24.714;2023-02-20T00:28:31;99774.44;;;12.31;58.61
23170;BME280;11753;43.144;24.714;2023-02-20T00:29:32;99785.66;;;12.33;58.55
23170;BME280;11753;43.144;24.714;2023-02-20T00:30:35;99776.91;;;12.25;58.96
23170;BME280;11753;43.144;24.714;2023-02-20T00:31:36;99776.56;;;12.20;59.43
23170;BME280;11753;43.144;24.714;2023-02-20T00:32:40;99775.22;;;12.16;59.35
23170;BME280;11753;43.144;24.714;2023-02-20T00:33:41;99779.19;;;12.20;59.31
23170;BME280;11753;43.144;24.714;2023-02-20T00:34:42;99794.03;;;12.21;59.22
23170;BME280;11753;43.144;24.714;2023-02-20T00:35:43;99778.72;;;12.24;59.22
23170;BME280;11753;43.144;24.714;2023-02-20T00:36:44;99784.28;;;12.13;59.50
23170;BME280;11753;43.144;24.714;2023-02-20T00:37:46;99780.66;;;12.14;59.60
23170;BME280;11753;43.144;24.714;2023-02-20T00:38:47;99780.81;;;12.12;59.53
23170;BME280;11753;43.144;24.714;2023-02-20T00:39:48;99762.88;;;12.24;59.13
23170;BME280;11753;43.144;24.714;2023-02-20T00:40:49;99760.44;;;12.31;59.18
23170;BME280;11753;43.144;24.714;2023-02-20T00:41:50;99751.81;;;12.21;59.32
23170;BME280;11753;43.144;24.714;2023-02-20T00:42:51;99756.78;;;12.24;59.20
23170;BME280;11753;43.144;24.714;2023-02-20T00:43:51;99747.34;;;12.21;59.31
23170;BME280;11753;43.144;24.714;2023-02-20T00:44:52;99753.50;;;12.30;59.23
23170;BME280;11753;43.144;24.714;2023-02-20T00:45:52;99766.31;;;12.17;59.25
23170;BME280;11753;43.144;24.714;2023-02-20T00:46:53;99752.47;;;12.15;59.34
23170;BME280;11753;43.144;24.714;2023-02-20T00:47:53;99754.31;;;12.22;59.25
23170;BME280;11753;43.144;24.714;2023-02-20T00:48:54;99751.34;;;12.25;59.01
23170;BME280;11753;43.144;24.714;2023-02-20T00:49:55;99762.72;;;12.26;59.09
23170;BME280;11753;43.144;24.714;2023-02-20T00:50:56;99748.53;;;12.27;58.73
23170;BME280;11753;43.144;24.714;2023-02-20T00:51:57;99748.88;;;12.32;58.94
23170;BME280;11753;43.144;24.714;2023-02-20T00:52:58;99752.81;;;12.28;59.01
23170;BME280;11753;43.144;24.714;2023-02-20T00:53:59;99738.13;;;12.25;58.97
23170;BME280;11753;43.144;24.714;2023-02-20T00:55:01;99772.28;;;12.27;58.70
23170;BME280;11753;43.144;24.714;2023-02-20T00:56:02;99757.13;;;12.29;58.68
23170;BME280;11753;43.144;24.714;2023-02-20T00:57:04;99765.53;;;12.32;58.86
23170;BME280;11753;43.144;24.714;2023-02-20T00:58:05;99761.25;;;12.31;58.60
23170;BME280;11753;43.144;24.714;2023-02-20T00:59:06;99762.91;;;12.32;58.56
23170;BME280;11753;43.144;24.714;2023-02-20T01:00:11;99762.91;;;12.40;58.56
23170;BME280;11753;43.144;24.714;2023-02-20T01:01:19;99765.22;;;12.35;58.41
23170;BME280;11753;43.144;24.714;2023-02-20T01:02:20;99780.56;;;12.40;58.26
23170;BME280;11753;43.144;24.714;2023-02-20T01:03:22;99780.56;;;12.32;58.41
23170;BME280;11753;43.144;24.714;2023-02-20T01:04:23;99778.88;;;12.23;58.70
23170;BME280;11753;43.144;24.714;2023-02-20T01:05:24;99777.25;;;12.30;58.73
23170;BME280;11753;43.144;24.714;2023-02-20T01:06:25;99773.09;;;12.27;58.56
23170;BME280;11753;43.144;24.714;2023-02-20T01:07:26;99766.50;;;12.23;58.73
23170;BME280;11753;43.144;24.714;2023-02-20T01:08:27;99780.19;;;12.27;58.58
23170;BME280;11753;43.144;24.714;2023-02-20T01:09:28;99775.56;;;12.21;58.57
23170;BME280;11753;43.144;24.714;2023-02-20T01:10:29;99797.03;;;12.26;58.36
23170;BME280;11753;43.144;24.714;2023-02-20T01:11:30;99786.16;;;12.29;58.28
23170;BME280;11753;43.144;24.714;2023-02-20T01:12:31;99773.91;;;12.20;58.65
23170;BME280;11753;43.144;24.714;2023-02-20T01:13:32;99789.44;;;12.23;57.89
23170;BME280;11753;43.144;24.714;2023-02-20T01:14:33;99772.91;;;12.21;58.36
23170;BME280;11753;43.144;24.714;2023-02-20T01:15:34;99779.53;;;12.25;58.05
23170;BME280;11753;43.144;24.714;2023-02-20T01:16:49;99781.00;;;12.19;58.50
23170;BME280;11753;43.144;24.714;2023-02-20T01:17:51;99781.34;;;12.24;58.06
23170;BME280;11753;43.144;24.714;2023-02-20T01:18:52;99773.59;;;12.15;58.28
23170;BME280;11753;43.144;24.714;2023-02-20T01:19:53;99770.78;;;12.16;58.07
23170;BME280;11753;43.144;24.714;2023-02-20T01:20:55;99794.84;;;12.21;58.13
23170;BME280;11753;43.144;24.714;2023-02-20T01:21:56;99776.91;;;12.25;58.18
23170;BME280;11753;43.144;24.714;2023-02-20T01:22:57;99796.38;;;12.24;57.77
23170;BME280;11753;43.144;24.714;2023-02-20T01:23:58;99776.25;;;12.23;57.97
23170;BME280;11753;43.144;24.714;2023-02-20T01:24:59;99751.81;;;12.21;58.09
23170;BME280;11753;43.144;24.714;2023-02-20T01:26:00;99792.09;;;12.23;58.03
23170;BME280;11753;43.144;24.714;2023-02-20T01:27:01;99780.69;;;12.22;58.14
23170;BME280;11753;43.144;24.714;2023-02-20T01:28:02;99793.41;;;12.27;58.18
23170;BME280;11753;43.144;24.714;2023-02-20T01:29:04;99776.25;;;12.23;58.12
23170;BME280;11753;43.144;24.714;2023-02-20T01:30:06;99773.91;;;12.20;58.12
23170;BME280;11753;43.144;24.714;2023-02-20T01:31:07;99787.09;;;12.20;58.19
23170;BME280;11753;43.144;24.714;2023-02-20T01:32:10;99785.63;;;12.17;58.33
23170;BME280;11753;43.144;24.714;2023-02-20T01:33:12;99781.00;;;12.19;58.09
23170;BME280;11753;43.144;24.714;2023-02-20T01:34:13;99783.66;;;12.19;58.07
23170;BME280;11753;43.144;24.714;2023-02-20T01:35:14;99794.56;;;12.24;58.02
23170;BME280;11753;43.144;24.714;2023-02-20T01:36:16;99768.16;;;12.24;58.13
23170;BME280;11753;43.144;24.714;2023-02-20T01:37:17;99789.09;;;12.18;58.29
23170;BME280;11753;43.144;24.714;2023-02-20T01:38:18;99779.13;;;12.03;58.37
23170;BME280;11753;43.144;24.714;2023-02-20T01:39:25;99771.56;;;12.00;58.72
23170;BME280;11753;43.144;24.714;2023-02-20T01:40:26;99785.69;;;11.99;58.90
23170;BME280;11753;43.144;24.714;2023-02-20T01:41:28;99768.94;;;12.08;58.58
23170;BME280;11753;43.144;24.714;2023-02-20T01:42:31;99787.06;;;12.03;58.74
23170;BME280;11753;43.144;24.714;2023-02-20T01:43:32;99788.00;;;11.94;58.89
23170;BME280;11753;43.144;24.714;2023-02-20T01:44:35;99790.78;;;11.93;59.32
23170;BME280;11753;43.144;24.714;2023-02-20T01:45:38;99801.16;;;11.86;59.17
23170;BME280;11753;43.144;24.714;2023-02-20T01:46:41;99803.09;;;11.84;59.51
23170;BME280;11753;43.144;24.714;2023-02-20T01:47:44;99788.31;;;11.91;59.14
23170;BME280;11753;43.144;24.714;2023-02-20T01:48:45;99773.38;;;11.74;59.41
23170;BME280;11753;43.144;24.714;2023-02-20T01:49:59;99787.75;;;11.79;59.64
23170;BME280;11753;43.144;24.714;2023-02-20T01:51:06;99792.72;;;11.82;59.54
23170;BME280;11753;43.144;24.714;2023-02-20T01:52:16;99796.19;;;11.83;59.44
23170;BME280;11753;43.144;24.714;2023-02-20T01:53:21;99779.91;;;11.70;59.95
23170;BME280;11753;43.144;24.714;2023-02-20T01:54:24;99790.47;;;11.70;59.74
23170;BME280;11753;43.144;24.714;2023-02-20T01:55:32;99783.75;;;11.75;59.68
23170;BME280;11753;43.144;24.714;2023-02-20T01:56:37;99800.41;;;11.76;59.59
23170;BME280;11753;43.144;24.714;2023-02-20T01:57:41;99794.28;;;11.75;59.56
23170;BME280;11753;43.144;24.714;2023-02-20T01:58:45;99793.16;;;11.78;59.58
23170;BME280;11753;43.144;24.714;2023-02-20T01:59:49;99791.44;;;11.69;59.72
23170;BME280;11753;43.144;24.714;2023-02-20T02:00:53;99785.72;;;11.73;59.73
23170;BME280;11753;43.144;24.714;2023-02-20T02:01:56;99780.28;;;11.75;59.41
23170;BME280;11753;43.144;24.714;2023-02-20T02:03:21;99792.88;;;11.81;59.52
23170;BME280;11753;43.144;24.714;2023-02-20T02:04:23;99783.59;;;11.77;59.17
23170;BME280;11753;43.144;24.714;2023-02-20T02:05:26;99818.44;;;11.80;59.23
23170;BME280;11753;43.144;24.714;2023-02-20T02:06:28;99789.56;;;11.79;59.12
23170;BME280;11753;43.144;24.714;2023-02-20T02:07:31;99807.56;;;11.83;59.07
23170;BME280;11753;43.144;24.714;2023-02-20T02:08:36;99789.84;;;11.76;59.32
23170;BME280;11753;43.144;24.714;2023-02-20T02:10:01;99799.41;;;11.77;59.24
23170;BME280;11753;43.144;24.714;2023-02-20T02:11:08;99772.38;;;11.75;59.31
23170;BME280;11753;43.144;24.714;2023-02-20T02:12:10;99819.25;;;11.81;59.47
23170;BME280;11753;43.144;24.714;2023-02-20T02:13:11;99808.97;;;11.78;59.39
23170;BME280;11753;43.144;24.714;2023-02-20T02:14:14;99816.75;;;11.79;59.31
23170;BME280;11753;43.144;24.714;2023-02-20T02:15:17;99822.31;;;11.76;59.16
23170;BME280;11753;43.144;24.714;2023-02-20T02:21:15;99802.38;;;11.74;58.80
23170;BME280;11753;43.144;24.714;2023-02-20T02:36:35;99813.44;;;11.51;59.04
23170;BME280;11753;43.144;24.714;2023-02-20T02:40:46;99820.00;;;11.47;59.29
23170;BME280;11753;43.144;24.714;2023-02-20T02:42:05;99818.84;;;11.50;59.29
23170;BME280;11753;43.144;24.714;2023-02-20T02:44:20;99824.00;;;11.51;59.04
23170;BME280;11753;43.144;24.714;2023-02-20T02:45:30;99829.34;;;11.42;59.21
23170;BME280;11753;43.144;24.714;2023-02-20T02:47:00;99812.19;;;11.38;59.61
23170;BME280;11753;43.144;24.714;2023-02-20T02:48:15;99849.31;;;11.44;59.45
23170;BME280;11753;43.144;24.714;2023-02-20T02:50:35;99834.47;;;11.43;59.71
23170;BME280;11753;43.144;24.714;2023-02-20T02:51:39;99859.03;;;11.44;59.53
23170;BME280;11753;43.144;24.714;2023-02-20T02:52:46;99892.66;;;11.50;59.69
23170;BME280;11753;43.144;24.714;2023-02-20T02:54:07;99838.44;;;11.47;59.76
23170;BME280;11753;43.144;24.714;2023-02-20T02:55:09;99849.00;;;11.47;59.97
23170;BME280;11753;43.144;24.714;2023-02-20T02:56:11;99850.63;;;11.48;59.87
23170;BME280;11753;43.144;24.714;2023-02-20T02:57:24;99869.03;;;11.40;60.21
23170;BME280;11753;43.144;24.714;2023-02-20T02:58:25;99844.31;;;11.41;60.34
23170;BME280;11753;43.144;24.714;2023-02-20T02:59:30;99842.38;;;11.43;60.25
23170;BME280;11753;43.144;24.714;2023-02-20T03:00:46;99854.66;;;11.35;60.64
23170;BME280;11753;43.144;24.714;2023-02-20T03:01:56;99864.44;;;11.42;60.51
23170;BME280;11753;43.144;24.714;2023-02-20T03:04:06;99842.00;;;11.38;60.60
23170;BME280;11753;43.144;24.714;2023-02-20T03:05:12;99848.88;;;11.31;60.74
23170;BME280;11753;43.144;24.714;2023-02-20T03:06:26;99830.25;;;11.33;60.86
23170;BME280;11753;43.144;24.714;2023-02-20T03:07:32;99862.72;;;11.33;60.68
23170;BME280;11753;43.144;24.714;2023-02-20T03:08:38;99862.94;;;11.40;60.47
23170;BME280;11753;43.144;24.714;2023-02-20T03:10:53;99868.16;;;11.32;60.67
23170;BME280;11753;43.144;24.714;2023-02-20T03:11:55;99836.69;;;11.30;60.68
23170;BME280;11753;43.144;24.714;2023-02-20T03:13:02;99871.38;;;11.25;60.90
23170;BME280;11753;43.144;24.714;2023-02-20T03:15:33;99896.59;;;11.28;60.79
23170;BME280;11753;43.144;24.714;2023-02-20T03:16:45;99884.03;;;11.22;60.89
23170;BME280;11753;43.144;24.714;2023-02-20T03:19:13;99903.09;;;11.16;61.38
23170;BME280;11753;43.144;24.714;2023-02-20T03:20:20;99885.63;;;11.15;61.43
23170;BME280;11753;43.144;24.714;2023-02-20T03:21:23;99896.28;;;11.13;61.65
23170;BME280;11753;43.144;24.714;2023-02-20T03:22:50;99894.13;;;11.09;61.72
23170;BME280;11753;43.144;24.714;2023-02-20T03:24:00;99892.91;;;11.03;61.93
23170;BME280;11753;43.144;24.714;2023-02-20T03:26:27;99897.19;;;11.04;61.85
23170;BME280;11753;43.144;24.714;2023-02-20T03:27:41;99897.28;;;10.94;62.34
23170;BME280;11753;43.144;24.714;2023-02-20T03:28:47;99899.19;;;10.92;62.10
23170;BME280;11753;43.144;24.714;2023-02-20T03:29:55;99878.53;;;10.97;62.00
23170;BME280;11753;43.144;24.714;2023-02-20T03:31:07;99890.72;;;10.98;61.99
23170;BME280;11753;43.144;24.714;2023-02-20T03:32:11;99868.59;;;10.91;61.92
23170;BME280;11753;43.144;24.714;2023-02-20T03:33:39;99912.28;;;10.84;62.30
23170;BME280;11753;43.144;24.714;2023-02-20T03:35:01;99894.16;;;10.81;62.45
23170;BME280;11753;43.144;24.714;2023-02-20T03:36:30;99904.69;;;10.81;62.40
23170;BME280;11753;43.144;24.714;2023-02-20T03:37:51;99875.56;;;10.83;62.20
23170;BME280;11753;43.144;24.714;2023-02-20T03:39:16;99865.47;;;10.78;62.42
23170;BME280;11753;43.144;24.714;2023-02-20T03:40:36;99885.44;;;10.81;62.36
23170;BME280;11753;43.144;24.714;2023-02-20T03:41:58;99892.03;;;10.67;62.66
23170;BME280;11753;43.144;24.714;2023-02-20T03:43:20;99897.97;;;10.69;62.81
23170;BME280;11753;43.144;24.714;2023-02-20T03:44:33;99895.50;;;10.67;62.89
23170;BME280;11753;43.144;24.714;2023-02-20T03:45:37;99900.91;;;10.66;62.68
23170;BME280;11753;43.144;24.714;2023-02-20T03:46:40;99876.75;;;10.70;62.41
23170;BME280;11753;43.144;24.714;2023-02-20T03:47:44;99895.06;;;10.72;62.11
23170;BME280;11753;43.144;24.714;2023-02-20T03:49:02;99866.75;;;10.74;61.87
23170;BME280;11753;43.144;24.714;2023-02-20T03:50:07;99890.16;;;10.77;61.87
23170;BME280;11753;43.144;24.714;2023-02-20T03:51:28;99887.00;;;10.73;61.92
23170;BME280;11753;43.144;24.714;2023-02-20T03:52:29;99906.66;;;10.79;61.36
23170;BME280;11753;43.144;24.714;2023-02-20T03:53:30;99879.84;;;10.84;61.49
23170;BME280;11753;43.144;24.714;2023-02-20T03:54:34;99931.03;;;10.81;60.85
23170;BME280;11753;43.144;24.714;2023-02-20T03:55:36;99896.66;;;10.83;60.84
23170;BME280;11753;43.144;24.714;2023-02-20T03:56:41;99913.28;;;10.83;60.85
23170;BME280;11753;43.144;24.714;2023-02-20T03:57:47;99897.78;;;10.80;60.86
23170;BME280;11753;43.144;24.714;2023-02-20T03:59:00;99915.22;;;10.81;60.58
23170;BME280;11753;43.144;24.714;2023-02-20T04:00:10;99920.75;;;10.88;60.72
23170;BME280;11753;43.144;24.714;2023-02-20T04:01:15;99924.13;;;10.80;60.82
23170;BME280;11753;43.144;24.714;2023-02-20T04:02:39;99898.63;;;10.71;61.43
23170;BME280;11753;43.144;24.714;2023-02-20T04:03:46;99901.16;;;10.72;61.27
23170;BME280;11753;43.144;24.714;2023-02-20T04:04:51;99908.66;;;10.67;61.21
23170;BME280;11753;43.144;24.714;2023-02-20T04:05:56;99907.59;;;10.60;61.21
23170;BME280;11753;43.144;24.714;2023-02-20T04:06:59;99916.41;;;10.69;61.06
23170;BME280;11753;43.144;24.714;2023-02-20T04:09:24;99907.00;;;10.66;61.41
23170;BME280;11753;43.144;24.714;2023-02-20T04:10:39;99915.25;;;10.71;60.78
23170;BME280;11753;43.144;24.714;2023-02-20T04:11:49;99915.75;;;10.57;61.48
23170;BME280;11753;43.144;24.714;2023-02-20T04:12:52;99916.00;;;10.64;60.88
23170;BME280;11753;43.144;24.714;2023-02-20T04:13:55;99926.75;;;10.53;61.56
23170;BME280;11753;43.144;24.714;2023-02-20T04:14:58;99915.06;;;10.55;61.48
23170;BME280;11753;43.144;24.714;2023-02-20T04:16:00;99903.78;;;10.45;61.65
23170;BME280;11753;43.144;24.714;2023-02-20T04:17:06;99928.38;;;10.54;61.45
23170;BME280;11753;43.144;24.714;2023-02-20T04:18:17;99923.44;;;10.51;61.50
23170;BME280;11753;43.144;24.714;2023-02-20T04:19:19;99918.84;;;10.53;61.44
23170;BME280;11753;43.144;24.714;2023-02-20T04:20:21;99934.47;;;10.54;61.41
23170;BME280;11753;43.144;24.714;2023-02-20T04:21:30;99927.13;;;10.58;61.32
23170;BME280;11753;43.144;24.714;2023-02-20T04:22:38;99933.66;;;10.54;61.41
23170;BME280;11753;43.144;24.714;2023-02-20T04:23:44;99922.44;;;10.52;61.09
23170;BME280;11753;43.144;24.714;2023-02-20T04:24:53;99918.16;;;10.51;61.23
23170;BME280;11753;43.144;24.714;2023-02-20T04:26:09;99923.13;;;10.54;61.33
23170;BME280;11753;43.144;24.714;2023-02-20T04:27:12;99923.13;;;10.54;61.12
23170;BME280;11753;43.144;24.714;2023-02-20T04:28:14;99910.38;;;10.49;61.28
23170;BME280;11753;43.144;24.714;2023-02-20T04:29:15;99900.47;;;10.43;61.49
23170;BME280;11753;43.144;24.714;2023-02-20T04:30:17;99906.69;;;10.42;61.80
23170;BME280;11753;43.144;24.714;2023-02-20T04:31:18;99911.81;;;10.43;61.61
23170;BME280;11753;43.144;24.714;2023-02-20T04:32:20;99908.38;;;10.43;61.49
23170;BME280;11753;43.144;24.714;2023-02-20T04:33:21;99913.19;;;10.47;61.52
23170;BME280;11753;43.144;24.714;2023-02-20T04:34:22;99921.81;;;10.40;61.55
23170;BME280;11753;43.144;24.714;2023-02-20T04:35:23;99924.84;;;10.45;61.59
23170;BME280;11753;43.144;24.714;2023-02-20T04:36:25;99922.78;;;10.39;61.54
23170;BME280;11753;43.144;24.714;2023-02-20T04:37:25;99920.41;;;10.45;61.53
23170;BME280;11753;43.144;24.714;2023-02-20T04:38:27;99929.16;;;10.36;61.80
23170;BME280;11753;43.144;24.714;2023-02-20T04:39:28;99920.97;;;10.39;61.45
23170;BME280;11753;43.144;24.714;2023-02-20T04:40:29;99920.72;;;10.33;61.54
23170;BME280;11753;43.144;24.714;2023-02-20T04:41:30;99925.84;;;10.34;61.53
23170;BME280;11753;43.144;24.714;2023-02-20T04:42:31;99929.59;;;10.32;61.40
23170;BME280;11753;43.144;24.714;2023-02-20T04:43:32;99938.75;;;10.18;61.83
23170;BME280;11753;43.144;24.714;2023-02-20T04:44:33;99935.72;;;10.23;61.84
23170;BME280;11753;43.144;24.714;2023-02-20T04:45:35;99942.50;;;10.25;61.67
23170;BME280;11753;43.144;24.714;2023-02-20T04:46:36;99952.88;;;10.17;61.92
23170;BME280;11753;43.144;24.714;2023-02-20T04:47:37;99956.47;;;10.26;61.74
23170;BME280;11753;43.144;24.714;2023-02-20T04:48:38;99943.19;;;10.17;61.80
23170;BME280;11753;43.144;24.714;2023-02-20T04:49:39;99931.25;;;10.13;62.07
23170;BME280;11753;43.144;24.714;2023-02-20T04:50:40;99936.97;;;10.09;62.16
23170;BME280;11753;43.144;24.714;2023-02-20T04:51:41;99931.97;;;10.06;62.38
23170;BME280;11753;43.144;24.714;2023-02-20T04:52:42;99943.47;;;10.05;62.19
23170;BME280;11753;43.144;24.714;2023-02-20T04:53:43;99934.06;;;9.92;62.45
23170;BME280;11753;43.144;24.714;2023-02-20T04:54:44;99950.94;;;10.00;62.18
23170;BME280;11753;43.144;24.714;2023-02-20T04:55:45;99948.31;;;10.00;62.15
23170;BME280;11753;43.144;24.714;2023-02-20T04:56:46;99952.75;;;10.09;62.03
23170;BME280;11753;43.144;24.714;2023-02-20T04:57:48;99942.38;;;9.98;61.99
23170;BME280;11753;43.144;24.714;2023-02-20T04:58:49;99940.44;;;10.00;62.10
23170;BME280;11753;43.144;24.714;2023-02-20T04:59:51;99938.09;;;9.97;62.39
23170;BME280;11753;43.144;24.714;2023-02-20T05:00:52;99986.97;;;9.89;62.23
23170;BME280;11753;43.144;24.714;2023-02-20T05:01:53;99973.94;;;9.98;62.02
23170;BME280;11753;43.144;24.714;2023-02-20T05:02:56;99963.72;;;9.95;62.08
23170;BME280;11753;43.144;24.714;2023-02-20T05:03:57;99991.66;;;9.96;62.23
23170;BME280;11753;43.144;24.714;2023-02-20T05:04:59;99959.28;;;9.95;62.28
23170;BME280;11753;43.144;24.714;2023-02-20T05:06:00;99987.78;;;9.90;62.34
23170;BME280;11753;43.144;24.714;2023-02-20T05:07:02;99971.03;;;9.91;62.26
23170;BME280;11753;43.144;24.714;2023-02-20T05:08:05;99972.97;;;9.99;62.26
23170;BME280;11753;43.144;24.714;2023-02-20T05:09:06;99979.06;;;9.89;62.31
23170;BME280;11753;43.144;24.714;2023-02-20T05:10:14;99983.66;;;9.87;62.76
23170;BME280;11753;43.144;24.714;2023-02-20T05:11:16;99978.66;;;9.84;62.79
23170;BME280;11753;43.144;24.714;2023-02-20T05:12:17;99977.28;;;9.80;63.02
23170;BME280;11753;43.144;24.714;2023-02-20T05:13:18;99974.94;;;9.68;63.48
23170;BME280;11753;43.144;24.714;2023-02-20T05:14:20;99970.50;;;9.68;63.76
23170;BME280;11753;43.144;24.714;2023-02-20T05:15:22;99965.38;;;9.76;63.76
23170;BME280;11753;43.144;24.714;2023-02-20T05:16:23;99969.94;;;9.84;63.53
23170;BME280;11753;43.144;24.714;2023-02-20T05:17:24;99988.06;;;9.77;63.71
23170;BME280;11753;43.144;24.714;2023-02-20T05:18:29;100002.75;;;9.80;64.01
23170;BME280;11753;43.144;24.714;2023-02-20T05:19:30;99993.75;;;9.63;64.54
23170;BME280;11753;43.144;24.714;2023-02-20T05:20:32;100002.75;;;9.70;64.73
23170;BME280;11753;43.144;24.714;2023-02-20T05:21:51;100017.94;;;9.47;65.61
23170;BME280;11753;43.144;24.714;2023-02-20T05:23:11;100012.69;;;9.47;66.11
23170;BME280;11753;43.144;24.714;2023-02-20T05:24:12;100000.81;;;9.53;65.93
23170;BME280;11753;43.144;24.714;2023-02-20T05:25:14;100010.22;;;9.46;66.13
23170;BME280;11753;43.144;24.714;2023-02-20T05:26:20;100016.16;;;9.48;66.42
23170;BME280;11753;43.144;24.714;2023-02-20T05:27:22;100010.22;;;9.46;66.74
23170;BME280;11753;43.144;24.714;2023-02-20T05:28:23;100020.72;;;9.46;66.88
23170;BME280;11753;43.144;24.714;2023-02-20T05:29:24;100022.66;;;9.44;67.01
23170;BME280;11753;43.144;24.714;2023-02-20T05:30:25;100028.84;;;9.43;66.98
23170;BME280;11753;43.144;24.714;2023-02-20T05:31:26;100034.78;;;9.35;67.42
23170;BME280;11753;43.144;24.714;2023-02-20T05:32:29;100026.78;;;9.36;67.46
23170;BME280;11753;43.144;24.714;2023-02-20T05:33:30;100016.41;;;9.35;67.68
23170;BME280;11753;43.144;24.714;2023-02-20T05:34:31;100024.00;;;9.28;68.04
23170;BME280;11753;43.144;24.714;2023-02-20T05:35:32;100027.88;;;9.24;68.40
23170;BME280;11753;43.144;24.714;2023-02-20T05:36:33;100059.91;;;9.18;68.69
23170;BME280;11753;43.144;24.714;2023-02-20T05:37:34;100063.69;;;9.25;68.60
23170;BME280;11753;43.144;24.714;2023-02-20T05:38:35;100066.31;;;9.25;68.75
23170;BME280;11753;43.144;24.714;2023-02-20T05:39:36;100030.09;;;9.29;68.92
23170;BME280;11753;43.144;24.714;2023-02-20T05:40:37;100047.00;;;9.36;68.68
23170;BME280;11753;43.144;24.714;2023-02-20T05:41:38;100055.50;;;9.28;68.82
23170;BME280;11753;43.144;24.714;2023-02-20T05:42:40;100068.25;;;9.23;68.98
23170;BME280;11753;43.144;24.714;2023-02-20T05:43:41;100063.84;;;9.33;68.94
23170;BME280;11753;43.144;24.714;2023-02-20T05:44:42;100051.13;;;9.38;68.82
23170;BME280;11753;43.144;24.714;2023-02-20T05:45:43;100045.56;;;9.22;69.17
23170;BME280;11753;43.144;24.714;2023-02-20T05:46:44;100060.34;;;9.23;69.04
23170;BME280;11753;43.144;24.714;2023-02-20T05:47:45;100061.88;;;9.26;69.37
23170;BME280;11753;43.144;24.714;2023-02-20T05:48:50;100055.19;;;9.12;69.74
23170;BME280;11753;43.144;24.714;2023-02-20T05:49:51;100061.06;;;9.25;69.60
23170;BME280;11753;43.144;24.714;2023-02-20T05:50:52;100068.91;;;9.16;69.84
23170;BME280;11753;43.144;24.714;2023-02-20T05:51:57;100063.81;;;9.24;69.33
23170;BME280;11753;43.144;24.714;2023-02-20T05:52:58;100076.53;;;9.28;69.44
23170;BME280;11753;43.144;24.714;2023-02-20T05:53:59;100073.78;;;9.30;69.36
23170;BME280;11753;43.144;24.714;2023-02-20T05:55:00;100071.84;;;9.22;69.48
23170;BME280;11753;43.144;24.714;2023-02-20T05:56:02;100073.75;;;9.20;69.55
23170;BME280;11753;43.144;24.714;2023-02-20T05:57:03;100091.97;;;9.12;69.94
23170;BME280;11753;43.144;24.714;2023-02-20T05:58:05;100087.84;;;9.19;69.91
23170;BME280;11753;43.144;24.714;2023-02-20T05:59:06;100091.75;;;9.25;69.65
23170;BME280;11753;43.144;24.714;2023-02-20T06:00:07;100103.38;;;9.22;69.67
23170;BME280;11753;43.144;24.714;2023-02-20T06:01:15;100098.88;;;9.13;69.80
23170;BME280;11753;43.144;24.714;2023-02-20T06:02:16;100105.75;;;9.04;70.11
23170;BME280;11753;43.144;24.714;2023-02-20T06:03:17;100112.47;;;9.18;69.70
23170;BME280;11753;43.144;24.714;2023-02-20T06:04:18;100119.19;;;9.11;69.76
23170;BME280;11753;43.144;24.714;2023-02-20T06:05:19;100128.91;;;9.20;69.48
23170;BME280;11753;43.144;24.714;2023-02-20T06:06:21;100124.09;;;9.25;69.28
23170;BME280;11753;43.144;24.714;2023-02-20T06:07:23;100127.94;;;9.21;69.00
23170;BME280;11753;43.144;24.714;2023-02-20T06:08:24;100128.03;;;9.10;69.51